createdAt,value
2018-10-12T00:03:31.948Z,101081.67
2018-10-12T00:08:35.056Z,101086.36
2018-10-12T00:13:38.099Z,101087.59
2018-10-12T00:18:41.250Z,101091.25
2018-10-12T00:23:44.310Z,101098.72
2018-10-12T00:28:47.421Z,101108.34
2018-10-12T00:33:50.594Z,101110.70
2018-10-12T00:38:53.643Z,101102.71
2018-10-12T00:43:56.692Z,101088.73
2018-10-12T00:48:59.753Z,101097.55
2018-10-12T00:54:02.927Z,101112.08
2018-10-12T00:59:05.978Z,101104.44
2018-10-12T01:04:09.274Z,101098.55
2018-10-12T01:09:12.416Z,101095.53
2018-10-12T01:14:16.336Z,101103.52
2018-10-12T01:19:19.492Z,101112.91
2018-10-12T01:24:22.652Z,101117.36
2018-10-12T01:29:25.907Z,101120.00
2018-10-12T01:34:29.003Z,101122.15
2018-10-12T01:39:32.065Z,101123.02
2018-10-12T01:44:35.246Z,101125.73
2018-10-12T01:49:38.761Z,101123.72
2018-10-12T01:54:42.277Z,101133.75
2018-10-12T01:59:45.395Z,101133.05
2018-10-12T02:04:48.538Z,101136.16
2018-10-12T02:09:51.688Z,101128.06
2018-10-12T02:14:54.784Z,101125.42
2018-10-12T02:19:57.856Z,101129.88
2018-10-12T02:25:01.004Z,101125.05
2018-10-12T02:30:05.480Z,101129.09
2018-10-12T02:35:08.619Z,101111.67
2018-10-12T02:40:11.690Z,101103.30
2018-10-12T02:45:14.855Z,101120.30
2018-10-12T02:50:17.927Z,101127.68
2018-10-12T02:55:21.028Z,101136.84
2018-10-12T03:00:24.099Z,101129.63
2018-10-12T03:05:27.262Z,101147.24
2018-10-12T03:10:30.626Z,101144.94
2018-10-12T03:15:34.059Z,101158.30
2018-10-12T03:20:37.156Z,101157.69
2018-10-12T03:25:40.320Z,101166.32
2018-10-12T03:30:43.520Z,101177.97
2018-10-12T03:35:47.300Z,101185.36
2018-10-12T03:40:50.425Z,101177.80
2018-10-12T03:45:53.591Z,101177.34
2018-10-12T03:50:56.776Z,101184.58
2018-10-12T03:55:59.937Z,101180.78
2018-10-12T04:01:03.019Z,101186.19
2018-10-12T04:06:06.131Z,101188.83
2018-10-12T04:11:09.379Z,101191.76
2018-10-12T04:16:12.492Z,101202.41
2018-10-12T04:21:15.581Z,101202.87
2018-10-12T04:26:18.664Z,101208.31
2018-10-12T04:31:21.715Z,101208.59
2018-10-12T04:36:24.789Z,101212.64
2018-10-12T04:41:29.563Z,101214.44
2018-10-12T04:46:39.306Z,101231.13
2018-10-12T04:51:46.791Z,101247.95
2018-10-12T04:56:50.463Z,101255.66
2018-10-12T05:01:53.621Z,101267.27
2018-10-12T05:06:56.796Z,101284.75
2018-10-12T05:11:59.948Z,101282.34
2018-10-12T05:17:03.304Z,101293.79
2018-10-12T05:22:06.634Z,101294.49
2018-10-12T05:27:09.703Z,101303.50
2018-10-12T05:32:12.783Z,101304.29
2018-10-12T05:37:15.861Z,101317.11
2018-10-12T05:42:18.943Z,101327.55
2018-10-12T05:47:22.116Z,101340.68
2018-10-12T05:52:25.427Z,101345.56
2018-10-12T05:57:29.924Z,101340.77
2018-10-12T06:02:33.099Z,101354.75
2018-10-12T06:07:36.176Z,101361.30
2018-10-12T06:12:39.315Z,101386.37
2018-10-12T06:17:42.411Z,101398.91
2018-10-12T06:22:45.496Z,101414.38
2018-10-12T06:27:48.579Z,101416.02
2018-10-12T06:32:51.699Z,101430.16
2018-10-12T06:37:54.762Z,101432.81
2018-10-12T06:42:57.828Z,101432.53
2018-10-12T06:48:00.929Z,101432.05
2018-10-12T06:53:04.061Z,101437.00
2018-10-12T06:58:07.612Z,101443.99
2018-10-12T07:03:10.756Z,101452.17
2018-10-12T07:08:13.982Z,101464.08
2018-10-12T07:13:17.083Z,101472.80
2018-10-12T07:18:20.201Z,101474.31
2018-10-12T07:23:23.297Z,101483.35
2018-10-12T07:28:26.381Z,101493.22
2018-10-12T07:33:29.524Z,101500.92
2018-10-12T07:38:32.614Z,101512.25
2018-10-12T07:43:35.708Z,101521.98
2018-10-12T07:48:38.823Z,101533.02
2018-10-12T07:53:41.939Z,101544.16
2018-10-12T07:58:45.038Z,101547.86
2018-10-12T08:03:48.115Z,101550.79
2018-10-12T08:08:51.279Z,101569.63
2018-10-12T08:13:54.538Z,101567.53
2018-10-12T08:18:57.655Z,101570.13
2018-10-12T08:24:00.844Z,101573.29
2018-10-12T08:29:03.971Z,101578.03
2018-10-12T08:34:07.164Z,101581.48
2018-10-12T08:39:12.048Z,101582.86
2018-10-12T08:44:15.342Z,101584.70
2018-10-12T08:49:18.479Z,101582.47
2018-10-12T08:54:21.595Z,101594.78
2018-10-12T08:59:24.807Z,101595.76
2018-10-12T09:04:27.929Z,101597.02
2018-10-12T09:09:31.032Z,101595.16
2018-10-12T09:14:34.161Z,101609.81
2018-10-12T09:19:37.272Z,101600.58
2018-10-12T09:24:40.471Z,101609.87
2018-10-12T09:29:43.641Z,101600.03
2018-10-12T09:34:46.776Z,101615.20
2018-10-12T09:39:49.998Z,101616.48
2018-10-12T09:44:53.136Z,101622.34
2018-10-12T09:49:56.215Z,101618.00
2018-10-12T09:54:59.318Z,101605.15
2018-10-12T10:00:03.163Z,101603.04
2018-10-12T10:05:07.194Z,101605.30
2018-10-12T10:10:10.306Z,101603.45
2018-10-12T10:15:13.456Z,101607.89
2018-10-12T10:20:16.593Z,101609.06
2018-10-12T10:25:19.704Z,101614.44
2018-10-12T10:30:22.866Z,101613.88
2018-10-12T10:35:25.971Z,101610.77
2018-10-12T10:40:29.208Z,101602.17
2018-10-12T10:45:32.331Z,101596.23
2018-10-12T10:50:35.433Z,101600.02
2018-10-12T10:55:38.559Z,101596.30
2018-10-12T11:00:41.752Z,101598.25
2018-10-12T11:05:44.908Z,101597.78
2018-10-12T11:10:48.041Z,101597.17
2018-10-12T11:15:51.312Z,101591.19
2018-10-12T11:20:54.406Z,101587.05
2018-10-12T11:25:57.544Z,101579.73
2018-10-12T11:31:00.639Z,101572.17
2018-10-12T11:36:03.749Z,101558.01
2018-10-12T11:41:07.377Z,101570.41
2018-10-12T11:46:10.530Z,101568.87
2018-10-12T11:51:13.679Z,101567.66
2018-10-12T11:56:16.796Z,101563.38
2018-10-12T12:01:19.907Z,101576.92
2018-10-12T12:06:23.011Z,101577.86
2018-10-12T12:11:26.216Z,101585.65
2018-10-12T12:16:29.432Z,101578.66
2018-10-12T12:21:32.593Z,101573.99
2018-10-12T12:26:35.840Z,101578.61
2018-10-12T12:31:39.363Z,101570.24
2018-10-12T12:36:44.325Z,101566.74
2018-10-12T12:41:47.664Z,101566.58
2018-10-12T12:46:50.680Z,101575.93
2018-10-12T12:51:53.753Z,101573.30
2018-10-12T12:56:56.843Z,101570.75
2018-10-12T13:01:59.939Z,101574.02
2018-10-12T13:07:03.035Z,101574.70
2018-10-12T13:12:06.169Z,101577.91
2018-10-12T13:17:09.299Z,101574.02
2018-10-12T13:22:12.407Z,101573.53
2018-10-12T13:27:15.517Z,101585.83
2018-10-12T13:32:18.692Z,101581.03
2018-10-12T13:37:21.775Z,101578.65
2018-10-12T13:42:24.875Z,101580.58
2018-10-12T13:47:27.939Z,101583.70
2018-10-12T13:52:31.179Z,101582.22
2018-10-12T13:57:34.305Z,101584.55
2018-10-12T14:02:37.379Z,101585.38
2018-10-12T14:07:40.461Z,101588.11
2018-10-12T14:12:43.534Z,101576.64
2018-10-12T14:17:46.648Z,101586.95
2018-10-12T14:22:49.820Z,101589.70
2018-10-12T14:27:52.947Z,101589.66
2018-10-12T14:32:56.029Z,101595.89
2018-10-12T14:37:59.272Z,101593.95
2018-10-12T14:43:02.419Z,101594.51
2018-10-12T14:48:05.643Z,101583.80
2018-10-12T14:53:09.012Z,101578.22
2018-10-12T14:58:12.059Z,101581.02
2018-10-12T15:03:15.163Z,101580.44
2018-10-12T15:08:18.256Z,101580.06
2018-10-12T15:13:21.388Z,101580.83
2018-10-12T15:18:24.555Z,101587.30
2018-10-12T15:23:27.629Z,101578.89
2018-10-12T15:28:30.707Z,101583.21
2018-10-12T15:33:33.800Z,101591.84
2018-10-12T15:38:36.976Z,101592.47
2018-10-12T15:43:40.055Z,101594.20
2018-10-12T15:48:43.164Z,101596.25
2018-10-12T15:53:46.503Z,101602.61
2018-10-12T15:58:49.672Z,101605.36
2018-10-12T16:03:52.799Z,101598.52
2018-10-12T16:08:55.879Z,101594.27
2018-10-12T16:13:59.108Z,101594.68
2018-10-12T16:19:02.485Z,101589.72
2018-10-12T16:24:09.264Z,101595.69
2018-10-12T16:29:15.419Z,101600.11
2018-10-12T16:34:18.547Z,101599.95
2018-10-12T16:39:21.655Z,101601.89
2018-10-12T16:44:24.765Z,101604.89
2018-10-12T16:49:27.837Z,101607.98
2018-10-12T16:54:30.891Z,101609.77
2018-10-12T16:59:33.967Z,101609.27
2018-10-12T17:04:37.310Z,101612.25
2018-10-12T17:09:40.453Z,101615.52
2018-10-12T17:14:43.568Z,101613.86
2018-10-12T17:19:46.656Z,101630.95
2018-10-12T17:24:49.736Z,101632.00
2018-10-12T17:29:52.815Z,101631.33
2018-10-12T17:34:58.241Z,101632.38
2018-10-12T17:40:03.364Z,101641.00
2018-10-12T17:45:09.335Z,101638.03
2018-10-12T17:50:14.218Z,101637.50
2018-10-12T17:55:19.951Z,101642.67
2018-10-12T18:00:25.866Z,101647.71
2018-10-12T18:05:30.879Z,101649.09
2018-10-12T18:10:36.293Z,101651.45
2018-10-12T18:15:41.259Z,101654.47
2018-10-12T18:20:46.140Z,101657.11
2018-10-12T18:25:52.825Z,101659.23
2018-10-12T18:30:57.558Z,101654.48
2018-10-12T18:36:04.208Z,101657.45
2018-10-12T18:41:10.595Z,101658.23
2018-10-12T18:46:15.056Z,101657.15
2018-10-12T18:51:19.621Z,101661.94
2018-10-12T18:56:22.773Z,101662.73
2018-10-12T19:01:25.871Z,101658.08
2018-10-12T19:06:29.141Z,101664.48
2018-10-12T19:11:32.272Z,101663.09
2018-10-12T19:16:35.587Z,101659.14
2018-10-12T19:21:38.731Z,101667.34
2018-10-12T19:26:41.900Z,101657.20
2018-10-12T19:31:45.178Z,101657.77
2018-10-12T19:36:49.866Z,101660.33
2018-10-12T19:41:54.670Z,101673.39
2018-10-12T19:47:01.740Z,101684.83
2018-10-12T19:52:06.524Z,101696.15
2018-10-12T19:57:11.143Z,101703.47
2018-10-12T20:02:16.475Z,101703.47
2018-10-12T20:07:23.849Z,101703.17
2018-10-12T20:12:30.299Z,101714.89
2018-10-12T20:17:35.126Z,101710.70
2018-10-12T20:22:39.896Z,101718.98
2018-10-12T20:27:45.276Z,101716.31
2018-10-12T20:32:50.845Z,101719.53
2018-10-12T20:37:56.348Z,101728.58
2018-10-12T20:43:02.666Z,101725.82
2018-10-12T20:48:07.880Z,101722.38
2018-10-12T20:53:13.245Z,101729.75
2018-10-12T20:58:18.204Z,101729.06
2018-10-12T21:03:23.570Z,101729.70
2018-10-12T21:08:30.622Z,101724.08
2018-10-12T21:13:37.166Z,101728.50
2018-10-12T21:18:42.004Z,101726.69
2018-10-12T21:23:46.780Z,101726.75
2018-10-12T21:28:51.982Z,101731.48
2018-10-12T21:33:56.817Z,101718.77
2018-10-12T21:39:01.488Z,101719.52
2018-10-12T21:44:06.332Z,101730.06
2018-10-12T21:49:11.616Z,101724.95
2018-10-12T21:54:17.336Z,101724.39
2018-10-12T21:59:23.054Z,101719.02
2018-10-12T22:04:27.936Z,101714.28
2018-10-12T22:09:33.783Z,101710.70
2018-10-12T22:14:38.865Z,101709.67
2018-10-12T22:19:43.546Z,101706.24
2018-10-12T22:24:49.081Z,101709.46
2018-10-12T22:29:54.334Z,101702.07
2018-10-12T22:34:59.378Z,101705.20
2018-10-12T22:40:05.214Z,101697.77
2018-10-12T22:45:09.910Z,101696.73
2018-10-12T22:50:15.400Z,101701.17
2018-10-12T22:55:20.076Z,101692.70
2018-10-12T23:00:25.488Z,101687.20
2018-10-12T23:05:31.052Z,101688.98
2018-10-12T23:10:35.860Z,101689.77
2018-10-12T23:15:39.169Z,101691.14
2018-10-12T23:20:42.419Z,101688.45
2018-10-12T23:25:45.653Z,101686.47
2018-10-12T23:30:48.756Z,101692.30
2018-10-12T23:35:51.824Z,101694.77
2018-10-12T23:40:54.883Z,101692.84
2018-10-12T23:45:57.975Z,101697.42
2018-10-12T23:51:01.080Z,101701.45
2018-10-12T23:56:04.476Z,101703.70
